createdAt,value
2023-04-30T00:00:09.612Z,5.30
2023-04-30T00:02:40.509Z,4.75
2023-04-30T00:05:09.327Z,4.97
2023-04-30T00:07:36.866Z,6.32
2023-04-30T00:10:05.358Z,5.20
2023-04-30T00:12:32.923Z,6.00
2023-04-30T00:15:01.376Z,6.93
2023-04-30T00:17:30.357Z,4.55
2023-04-30T00:19:57.896Z,4.40
2023-04-30T00:22:25.493Z,3.95
2023-04-30T00:24:52.979Z,5.93
2023-04-30T00:27:20.474Z,4.55
2023-04-30T00:29:47.990Z,3.65
2023-04-30T00:32:15.694Z,5.78
2023-04-30T00:34:44.598Z,3.70
2023-04-30T00:37:12.729Z,6.88
2023-04-30T00:39:40.317Z,5.50
2023-04-30T00:42:08.173Z,3.65
2023-04-30T00:44:35.956Z,4.32
2023-04-30T00:47:03.469Z,3.80
2023-04-30T00:49:31.000Z,5.97
2023-04-30T00:52:00.118Z,4.60
2023-04-30T00:54:27.778Z,5.50
2023-04-30T00:56:55.435Z,6.72
2023-04-30T00:59:23.022Z,6.15
2023-04-30T01:01:50.969Z,7.88
2023-04-30T01:04:19.336Z,5.47
2023-04-30T01:06:47.506Z,8.55
2023-04-30T01:09:16.620Z,6.85
2023-04-30T01:11:56.205Z,7.28
2023-04-30T01:14:28.759Z,6.40
2023-04-30T01:17:04.420Z,6.38
2023-04-30T01:19:38.937Z,5.90
2023-04-30T01:22:10.604Z,8.27
2023-04-30T01:24:54.612Z,6.80
2023-04-30T01:27:33.288Z,10.23
2023-04-30T01:30:03.755Z,6.80
2023-04-30T01:32:31.465Z,8.48
2023-04-30T01:35:00.616Z,9.93
2023-04-30T01:37:36.719Z,5.90
2023-04-30T01:40:15.822Z,7.50
2023-04-30T01:42:51.042Z,6.78
2023-04-30T01:45:33.913Z,6.85
2023-04-30T01:48:09.341Z,9.43
2023-04-30T01:50:48.179Z,7.22
2023-04-30T01:53:21.292Z,11.43
2023-04-30T01:55:53.256Z,10.68
2023-04-30T01:58:23.562Z,6.43
2023-04-30T02:00:53.464Z,8.23
2023-04-30T02:03:21.192Z,4.85
2023-04-30T02:05:49.048Z,7.78
2023-04-30T02:08:16.610Z,14.75
2023-04-30T02:10:44.295Z,11.40
2023-04-30T02:13:11.916Z,10.50
2023-04-30T02:15:39.491Z,6.60
2023-04-30T02:18:08.434Z,6.63
2023-04-30T02:20:36.036Z,8.23
2023-04-30T02:23:03.554Z,8.50
2023-04-30T02:25:32.998Z,7.30
2023-04-30T02:28:00.739Z,6.38
2023-04-30T02:30:29.495Z,7.65
2023-04-30T02:32:57.152Z,6.72
2023-04-30T02:35:26.346Z,8.98
2023-04-30T02:37:53.874Z,4.20
2023-04-30T02:40:21.447Z,3.53
2023-04-30T02:42:49.306Z,5.88
2023-04-30T02:45:16.987Z,5.68
2023-04-30T02:47:44.590Z,8.10
2023-04-30T02:50:12.217Z,6.57
2023-04-30T02:52:41.447Z,6.68
2023-04-30T02:55:09.942Z,6.93
2023-04-30T02:57:37.555Z,5.43
2023-04-30T03:00:07.098Z,5.32
2023-04-30T03:02:34.730Z,6.65
2023-04-30T03:05:02.909Z,4.95
2023-04-30T03:07:30.691Z,3.88
2023-04-30T03:09:59.582Z,5.63
2023-04-30T03:12:27.208Z,6.57
2023-04-30T03:14:54.755Z,4.50
2023-04-30T03:17:23.630Z,3.78
2023-04-30T03:19:51.571Z,4.07
2023-04-30T03:22:20.353Z,3.90
2023-04-30T03:24:47.922Z,4.13
2023-04-30T03:27:17.776Z,4.75
2023-04-30T03:29:45.286Z,4.18
2023-04-30T03:32:12.840Z,3.65
2023-04-30T03:34:40.543Z,3.33
2023-04-30T03:37:08.330Z,4.32
2023-04-30T03:39:35.893Z,3.30
2023-04-30T03:42:03.594Z,3.42
2023-04-30T03:44:32.468Z,3.50
2023-04-30T03:47:00.105Z,3.13
2023-04-30T03:49:27.727Z,3.50
2023-04-30T03:51:55.348Z,3.10
2023-04-30T03:54:22.885Z,3.60
2023-04-30T03:56:50.564Z,3.83
2023-04-30T03:59:19.122Z,4.10
2023-04-30T04:01:48.143Z,4.30
2023-04-30T04:04:15.958Z,4.07
2023-04-30T04:06:44.039Z,3.42
2023-04-30T04:09:11.613Z,4.13
2023-04-30T04:11:42.505Z,3.47
2023-04-30T04:14:10.053Z,3.80
2023-04-30T04:16:38.432Z,4.32
2023-04-30T04:19:07.393Z,3.92
2023-04-30T04:21:35.756Z,4.13
2023-04-30T04:24:08.600Z,4.93
2023-04-30T04:26:36.346Z,4.30
2023-04-30T04:29:04.427Z,4.78
2023-04-30T04:31:32.358Z,4.90
2023-04-30T04:34:01.439Z,4.20
2023-04-30T04:36:30.893Z,4.45
2023-04-30T04:39:01.864Z,4.22
2023-04-30T04:41:30.066Z,5.32
2023-04-30T04:43:58.199Z,4.30
2023-04-30T04:46:26.714Z,4.78
2023-04-30T04:48:54.376Z,4.30
2023-04-30T04:51:21.940Z,4.68
2023-04-30T04:53:51.049Z,4.28
2023-04-30T04:56:19.691Z,4.53
2023-04-30T04:58:48.102Z,4.32
2023-04-30T05:01:15.706Z,4.32
2023-04-30T05:03:44.752Z,4.70
2023-04-30T05:06:12.515Z,5.28
2023-04-30T05:08:40.167Z,4.95
2023-04-30T05:11:09.345Z,5.03
2023-04-30T05:13:36.859Z,4.88
2023-04-30T05:16:05.047Z,5.43
2023-04-30T05:18:32.633Z,5.63
2023-04-30T05:21:00.146Z,5.30
2023-04-30T05:23:28.424Z,5.63
2023-04-30T05:25:57.043Z,4.82
2023-04-30T05:28:26.391Z,4.82
2023-04-30T05:30:53.879Z,4.35
2023-04-30T05:33:21.480Z,4.82
2023-04-30T05:35:48.981Z,4.80
2023-04-30T05:38:16.470Z,5.25
2023-04-30T05:40:44.276Z,4.32
2023-04-30T05:43:11.861Z,4.25
2023-04-30T05:45:40.760Z,4.20
2023-04-30T05:48:08.315Z,4.53
2023-04-30T05:50:36.429Z,4.00
2023-04-30T05:53:03.924Z,3.53
2023-04-30T05:55:32.043Z,3.58
2023-04-30T05:57:59.544Z,3.72
2023-04-30T06:00:27.109Z,4.35
2023-04-30T06:02:56.035Z,3.70
2023-04-30T06:05:23.700Z,3.67
2023-04-30T06:07:51.291Z,3.40
2023-04-30T06:10:19.139Z,3.78
2023-04-30T06:12:46.676Z,4.30
2023-04-30T06:15:14.221Z,4.03
2023-04-30T06:17:41.841Z,3.35
2023-04-30T06:20:11.606Z,2.92
2023-04-30T06:22:41.059Z,2.38
2023-04-30T06:25:09.784Z,3.03
2023-04-30T06:27:37.425Z,3.95
2023-04-30T06:30:05.700Z,3.00
2023-04-30T06:32:33.207Z,2.42
2023-04-30T06:35:00.772Z,2.25
2023-04-30T06:37:30.308Z,3.00
2023-04-30T06:39:58.987Z,2.60
2023-04-30T06:42:26.658Z,3.33
2023-04-30T06:44:55.376Z,2.75
2023-04-30T06:47:22.971Z,3.35
2023-04-30T06:49:50.716Z,2.45
2023-04-30T06:52:18.244Z,2.53
2023-04-30T06:54:47.177Z,2.83
2023-04-30T06:57:15.721Z,2.33
2023-04-30T06:59:43.287Z,2.83
2023-04-30T07:02:10.843Z,3.63
2023-04-30T07:04:38.500Z,2.55
2023-04-30T07:07:06.219Z,2.42
2023-04-30T07:09:33.933Z,2.20
2023-04-30T07:12:03.149Z,3.20
2023-04-30T07:14:30.739Z,2.80
2023-04-30T07:16:58.230Z,2.40
2023-04-30T07:19:26.960Z,3.15
2023-04-30T07:21:54.648Z,2.88
2023-04-30T07:24:22.214Z,2.47
2023-04-30T07:26:49.799Z,2.47
2023-04-30T07:29:18.984Z,3.17
2023-04-30T07:31:46.666Z,3.13
2023-04-30T07:34:14.371Z,3.55
2023-04-30T07:36:41.939Z,5.10
2023-04-30T07:39:11.582Z,4.00
2023-04-30T07:41:39.119Z,5.50
2023-04-30T07:44:06.746Z,2.72
2023-04-30T07:46:36.487Z,3.22
2023-04-30T07:49:04.459Z,2.80
2023-04-30T07:51:32.875Z,2.33
2023-04-30T07:54:00.955Z,3.35
2023-04-30T07:56:28.499Z,2.78
2023-04-30T07:58:56.036Z,2.08
2023-04-30T08:01:23.617Z,2.75
2023-04-30T08:03:52.536Z,2.20
2023-04-30T08:06:20.392Z,2.35
2023-04-30T08:08:48.846Z,2.20
2023-04-30T08:11:17.779Z,2.33
2023-04-30T08:13:45.466Z,3.10
2023-04-30T08:16:13.108Z,2.67
2023-04-30T08:18:44.354Z,2.78
2023-04-30T08:21:13.693Z,2.25
2023-04-30T08:23:41.296Z,3.10
2023-04-30T08:26:08.858Z,2.55
2023-04-30T08:28:36.568Z,2.50
2023-04-30T08:31:04.227Z,2.67
2023-04-30T08:33:32.124Z,2.58
2023-04-30T08:35:59.819Z,4.20
2023-04-30T08:38:29.291Z,2.38
2023-04-30T08:41:06.399Z,2.85
2023-04-30T08:43:35.416Z,2.22
2023-04-30T08:46:03.666Z,3.38
2023-04-30T08:48:31.793Z,2.50
2023-04-30T08:51:01.137Z,2.30
2023-04-30T08:53:30.640Z,2.90
2023-04-30T08:55:58.321Z,2.78
2023-04-30T08:58:26.085Z,3.17
2023-04-30T09:00:53.769Z,2.78
2023-04-30T09:03:22.186Z,3.08
2023-04-30T09:05:49.859Z,2.50
2023-04-30T09:08:40.899Z,2.50
2023-04-30T09:11:21.826Z,2.60
2023-04-30T09:13:51.158Z,2.72
2023-04-30T09:16:19.054Z,2.10
2023-04-30T09:18:47.043Z,2.30
2023-04-30T09:21:15.056Z,2.33
2023-04-30T09:23:56.766Z,2.28
2023-04-30T09:26:32.917Z,2.53
2023-04-30T09:29:01.624Z,2.58
2023-04-30T09:31:29.837Z,2.25
2023-04-30T09:33:57.432Z,2.85
2023-04-30T09:36:25.043Z,2.80
2023-04-30T09:38:53.975Z,3.17
2023-04-30T09:41:27.176Z,2.08
2023-04-30T09:43:56.990Z,2.13
2023-04-30T09:46:32.428Z,2.72
2023-04-30T09:49:01.758Z,2.13
2023-04-30T09:51:29.578Z,2.20
2023-04-30T09:53:57.435Z,3.08
2023-04-30T09:56:26.726Z,3.22
2023-04-30T09:58:57.262Z,2.80
2023-04-30T10:01:27.727Z,3.00
2023-04-30T10:03:55.702Z,2.83
2023-04-30T10:06:24.412Z,2.28
2023-04-30T10:08:57.193Z,3.50
2023-04-30T10:11:29.152Z,2.65
2023-04-30T10:14:02.422Z,2.42
2023-04-30T10:16:39.953Z,2.60
2023-04-30T10:19:13.178Z,2.55
2023-04-30T10:21:43.373Z,2.58
2023-04-30T10:24:11.722Z,2.78
2023-04-30T10:26:39.887Z,2.53
2023-04-30T10:29:11.001Z,3.05
2023-04-30T10:31:39.850Z,4.72
2023-04-30T10:34:18.650Z,2.60
2023-04-30T10:36:49.692Z,3.10
2023-04-30T10:39:19.375Z,2.35
2023-04-30T10:41:49.032Z,2.67
2023-04-30T10:44:24.096Z,2.55
2023-04-30T10:46:59.958Z,2.58
2023-04-30T10:49:27.854Z,2.53
2023-04-30T10:51:56.974Z,2.28
2023-04-30T10:54:27.684Z,2.40
2023-04-30T10:56:58.156Z,2.25
2023-04-30T10:59:29.500Z,2.78
2023-04-30T11:02:07.305Z,2.00
2023-04-30T11:04:35.047Z,2.88
2023-04-30T11:07:09.237Z,2.75
2023-04-30T11:09:39.986Z,2.35
2023-04-30T11:12:13.531Z,2.35
2023-04-30T11:14:44.413Z,2.28
2023-04-30T11:17:13.788Z,2.90
2023-04-30T11:19:49.624Z,2.20
2023-04-30T11:22:22.532Z,2.58
2023-04-30T11:25:05.228Z,2.22
2023-04-30T11:27:34.162Z,2.60
2023-04-30T11:30:05.332Z,2.28
2023-04-30T11:32:35.420Z,2.60
2023-04-30T11:35:04.029Z,2.50
2023-04-30T11:37:33.466Z,2.58
2023-04-30T11:40:03.806Z,2.88
2023-04-30T11:42:34.884Z,3.15
2023-04-30T11:45:09.271Z,2.63
2023-04-30T11:47:45.394Z,2.63
2023-04-30T11:50:14.081Z,2.53
2023-04-30T11:52:42.765Z,2.78
2023-04-30T11:55:16.300Z,2.20
2023-04-30T11:57:44.954Z,2.70
2023-04-30T12:00:15.592Z,2.80
2023-04-30T12:02:45.747Z,2.60
2023-04-30T12:05:15.501Z,3.00
2023-04-30T12:07:47.513Z,2.63
2023-04-30T12:10:15.632Z,2.60
2023-04-30T12:12:44.638Z,2.70
2023-04-30T12:15:15.930Z,2.80
2023-04-30T12:17:44.177Z,4.82
2023-04-30T12:20:13.492Z,3.25
2023-04-30T12:22:41.612Z,3.95
2023-04-30T12:25:13.884Z,3.13
2023-04-30T12:27:42.576Z,2.78
2023-04-30T12:30:11.346Z,2.72
2023-04-30T12:32:41.640Z,2.85
2023-04-30T12:35:10.309Z,2.60
2023-04-30T12:37:43.099Z,2.67
2023-04-30T12:40:11.634Z,3.03
2023-04-30T12:42:39.326Z,3.30
2023-04-30T12:45:08.237Z,2.78
2023-04-30T12:47:40.359Z,2.80
2023-04-30T12:50:12.375Z,2.90
2023-04-30T12:52:41.105Z,2.70
2023-04-30T12:55:22.959Z,3.00
2023-04-30T12:58:10.283Z,3.08
2023-04-30T13:00:47.756Z,2.60
2023-04-30T13:03:18.916Z,2.95
2023-04-30T13:05:54.003Z,3.05
2023-04-30T13:08:22.101Z,2.80
2023-04-30T13:10:49.910Z,3.13
2023-04-30T13:13:20.101Z,3.28
2023-04-30T13:15:48.158Z,2.88
2023-04-30T13:18:16.463Z,2.80
2023-04-30T13:20:44.668Z,2.90
2023-04-30T13:23:13.617Z,3.28
2023-04-30T13:25:41.900Z,3.25
2023-04-30T13:28:09.613Z,3.22
2023-04-30T13:30:37.536Z,2.78
2023-04-30T13:33:05.161Z,3.03
2023-04-30T13:35:32.742Z,2.60
2023-04-30T13:38:01.028Z,2.85
2023-04-30T13:40:29.981Z,2.92
2023-04-30T13:42:57.504Z,3.97
2023-04-30T13:45:25.116Z,3.17
2023-04-30T13:47:55.722Z,2.90
2023-04-30T13:50:26.439Z,2.67
2023-04-30T13:52:53.972Z,2.83
2023-04-30T13:55:22.147Z,3.58
2023-04-30T13:57:51.457Z,4.03
2023-04-30T14:00:19.510Z,3.30
2023-04-30T14:02:47.316Z,2.75
2023-04-30T14:05:18.206Z,3.55
2023-04-30T14:07:45.855Z,3.17
2023-04-30T14:10:13.588Z,3.40
2023-04-30T14:12:41.230Z,2.60
2023-04-30T14:15:10.812Z,3.00
2023-04-30T14:17:38.584Z,3.28
2023-04-30T14:20:08.053Z,2.88
2023-04-30T14:22:38.385Z,3.15
2023-04-30T14:25:06.937Z,3.85
2023-04-30T14:27:34.719Z,2.78
2023-04-30T14:30:03.799Z,3.05
2023-04-30T14:32:32.877Z,3.30
2023-04-30T14:35:00.447Z,3.42
2023-04-30T14:37:28.074Z,2.60
2023-04-30T14:39:55.837Z,2.85
2023-04-30T14:42:23.637Z,3.05
2023-04-30T14:44:51.779Z,3.30
2023-04-30T14:47:20.130Z,2.47
2023-04-30T14:49:51.955Z,2.97
2023-04-30T14:52:19.779Z,2.28
2023-04-30T14:54:47.364Z,3.05
2023-04-30T14:57:15.915Z,3.10
2023-04-30T14:59:43.469Z,3.78
2023-04-30T15:02:11.412Z,3.10
2023-04-30T15:04:38.999Z,4.32
2023-04-30T15:07:07.902Z,4.25
2023-04-30T15:09:35.902Z,3.28
2023-04-30T15:12:03.846Z,3.33
2023-04-30T15:14:31.461Z,3.80
2023-04-30T15:16:58.957Z,4.03
2023-04-30T15:19:26.591Z,3.08
2023-04-30T15:21:54.216Z,3.17
2023-04-30T15:24:23.188Z,2.60
2023-04-30T15:26:54.212Z,4.40
2023-04-30T15:29:21.854Z,3.38
2023-04-30T15:31:51.875Z,2.60
2023-04-30T15:34:19.721Z,2.50
2023-04-30T15:36:47.331Z,2.55
2023-04-30T15:39:14.892Z,2.67
2023-04-30T15:41:44.567Z,2.65
2023-04-30T15:44:12.131Z,2.55
2023-04-30T15:46:39.802Z,2.38
2023-04-30T15:49:07.569Z,3.10
2023-04-30T15:51:38.512Z,2.90
2023-04-30T15:54:07.301Z,2.75
2023-04-30T15:56:35.723Z,2.35
2023-04-30T15:59:04.664Z,2.20
2023-04-30T16:01:32.306Z,2.08
2023-04-30T16:04:00.487Z,2.22
2023-04-30T16:06:29.953Z,2.78
2023-04-30T16:08:57.667Z,2.97
2023-04-30T16:11:25.343Z,3.55
2023-04-30T16:13:53.194Z,3.00
2023-04-30T16:16:22.101Z,2.80
2023-04-30T16:18:50.814Z,4.53
2023-04-30T16:21:18.577Z,2.95
2023-04-30T16:23:47.261Z,4.03
2023-04-30T16:26:15.058Z,2.97
2023-04-30T16:28:42.591Z,2.20
2023-04-30T16:31:11.662Z,1.90
2023-04-30T16:33:41.167Z,2.90
2023-04-30T16:36:08.781Z,2.67
2023-04-30T16:38:36.947Z,3.17
2023-04-30T16:41:04.514Z,4.22
2023-04-30T16:43:32.048Z,5.07
2023-04-30T16:45:59.796Z,4.60
2023-04-30T16:48:27.546Z,3.50
2023-04-30T16:50:56.585Z,7.88
2023-04-30T16:53:24.394Z,5.50
2023-04-30T16:55:52.791Z,6.13
2023-04-30T16:58:20.550Z,3.88
2023-04-30T17:00:49.690Z,2.28
2023-04-30T17:03:17.420Z,2.72
2023-04-30T17:05:45.131Z,2.90
2023-04-30T17:08:14.016Z,4.32
2023-04-30T17:10:42.540Z,3.72
2023-04-30T17:13:10.231Z,2.75
2023-04-30T17:15:37.909Z,3.05
2023-04-30T17:18:05.949Z,2.92
2023-04-30T17:20:33.834Z,2.72
2023-04-30T17:23:01.809Z,3.60
2023-04-30T17:25:31.844Z,3.17
2023-04-30T17:28:01.208Z,2.92
2023-04-30T17:30:28.927Z,3.10
2023-04-30T17:32:56.651Z,2.60
2023-04-30T17:35:24.319Z,3.60
2023-04-30T17:37:52.388Z,3.55
2023-04-30T17:40:19.946Z,3.65
2023-04-30T17:42:51.400Z,3.28
2023-04-30T17:45:19.766Z,3.92
2023-04-30T17:47:47.415Z,4.85
2023-04-30T17:50:16.467Z,4.55
2023-04-30T17:52:43.989Z,5.85
2023-04-30T17:55:12.869Z,5.18
2023-04-30T17:57:40.462Z,5.95
2023-04-30T18:00:10.939Z,4.80
2023-04-30T18:02:41.827Z,3.53
2023-04-30T18:05:10.256Z,2.65
2023-04-30T18:07:37.765Z,2.90
2023-04-30T18:10:06.154Z,2.78
2023-04-30T18:12:33.731Z,2.50
2023-04-30T18:15:02.309Z,2.92
2023-04-30T18:17:31.332Z,2.50
2023-04-30T18:19:59.494Z,2.53
2023-04-30T18:22:27.089Z,2.72
2023-04-30T18:24:54.686Z,3.03
2023-04-30T18:27:22.211Z,2.97
2023-04-30T18:29:50.214Z,3.85
2023-04-30T18:32:18.059Z,2.92
2023-04-30T18:34:47.174Z,3.28
2023-04-30T18:37:15.018Z,2.67
2023-04-30T18:39:42.648Z,2.97
2023-04-30T18:42:10.414Z,3.38
2023-04-30T18:44:37.943Z,3.20
2023-04-30T18:47:06.771Z,3.38
2023-04-30T18:49:34.270Z,2.53
2023-04-30T18:52:03.140Z,4.10
2023-04-30T18:54:30.817Z,4.05
2023-04-30T18:56:58.305Z,4.80
2023-04-30T18:59:27.360Z,4.30
2023-04-30T19:01:55.633Z,4.47
2023-04-30T19:04:23.350Z,5.25
2023-04-30T19:06:52.248Z,3.95
2023-04-30T19:09:21.404Z,6.05
2023-04-30T19:11:49.064Z,5.10
2023-04-30T19:14:16.673Z,4.28
2023-04-30T19:16:44.552Z,4.10
2023-04-30T19:19:12.150Z,3.67
2023-04-30T19:21:39.722Z,3.92
2023-04-30T19:24:07.400Z,4.85
2023-04-30T19:26:37.358Z,3.25
2023-04-30T19:29:05.036Z,3.97
2023-04-30T19:31:34.418Z,3.75
2023-04-30T19:34:02.106Z,4.22
2023-04-30T19:36:29.607Z,5.10
2023-04-30T19:38:57.260Z,4.82
2023-04-30T19:41:27.622Z,4.80
2023-04-30T19:43:56.709Z,5.10
2023-04-30T19:46:24.444Z,5.38
2023-04-30T19:48:55.047Z,5.97
2023-04-30T19:51:23.820Z,5.55
2023-04-30T19:53:52.128Z,5.63
2023-04-30T19:56:19.950Z,5.35
2023-04-30T19:58:48.490Z,5.05
2023-04-30T20:01:19.895Z,5.20
2023-04-30T20:03:48.407Z,6.00
2023-04-30T20:06:16.339Z,5.05
2023-04-30T20:08:44.088Z,5.40
2023-04-30T20:11:14.820Z,6.38
2023-04-30T20:13:44.665Z,6.85
2023-04-30T20:16:12.699Z,5.40
2023-04-30T20:18:42.441Z,4.85
2023-04-30T20:21:10.071Z,5.60
2023-04-30T20:23:39.354Z,6.47
2023-04-30T20:26:07.291Z,5.53
2023-04-30T20:28:36.824Z,5.78
2023-04-30T20:31:04.474Z,6.25
2023-04-30T20:33:31.971Z,7.10
2023-04-30T20:36:02.498Z,7.22
2023-04-30T20:38:30.351Z,7.75
2023-04-30T20:40:58.313Z,8.25
2023-04-30T20:43:26.014Z,8.63
2023-04-30T20:45:56.945Z,7.30
2023-04-30T20:48:24.578Z,8.07
2023-04-30T20:50:52.242Z,10.05
2023-04-30T20:53:21.272Z,9.70
2023-04-30T20:55:48.915Z,9.40
2023-04-30T20:58:16.541Z,8.50
2023-04-30T21:00:44.111Z,8.38
2023-04-30T21:03:11.921Z,7.97
2023-04-30T21:05:40.857Z,7.93
2023-04-30T21:08:08.446Z,8.63
2023-04-30T21:10:37.347Z,9.02
2023-04-30T21:13:06.163Z,9.60
2023-04-30T21:15:35.990Z,9.55
2023-04-30T21:18:03.702Z,9.68
2023-04-30T21:20:32.056Z,10.13
2023-04-30T21:22:59.835Z,9.70
2023-04-30T21:25:27.337Z,8.70
2023-04-30T21:27:56.216Z,10.23
2023-04-30T21:30:26.291Z,9.30
2023-04-30T21:32:58.109Z,9.75
2023-04-30T21:35:27.343Z,9.25
2023-04-30T21:37:55.323Z,9.32
2023-04-30T21:40:22.904Z,9.73
2023-04-30T21:42:51.192Z,9.85
2023-04-30T21:45:20.658Z,10.35
2023-04-30T21:47:48.736Z,10.05
2023-04-30T21:50:16.402Z,10.07
2023-04-30T21:52:44.032Z,9.95
2023-04-30T21:55:12.239Z,9.77
2023-04-30T21:57:39.744Z,10.43
2023-04-30T22:00:14.199Z,10.30
2023-04-30T22:02:50.624Z,10.45
2023-04-30T22:05:19.466Z,9.80
2023-04-30T22:07:47.577Z,9.80
2023-04-30T22:10:15.750Z,11.45
2023-04-30T22:12:47.165Z,9.93
2023-04-30T22:15:15.538Z,10.00
2023-04-30T22:17:43.132Z,9.45
2023-04-30T22:20:12.897Z,10.45
2023-04-30T22:22:40.405Z,10.25
2023-04-30T22:25:09.899Z,9.82
2023-04-30T22:27:37.547Z,10.27
2023-04-30T22:30:06.064Z,10.50
2023-04-30T22:32:34.289Z,10.55
2023-04-30T22:35:03.004Z,10.27
2023-04-30T22:37:32.024Z,10.75
2023-04-30T22:39:59.532Z,10.02
2023-04-30T22:42:27.214Z,10.98
2023-04-30T22:44:55.623Z,10.18
2023-04-30T22:47:23.360Z,9.52
2023-04-30T22:49:51.368Z,11.15
2023-04-30T22:52:18.934Z,10.00
2023-04-30T22:54:48.108Z,10.23
2023-04-30T22:57:16.048Z,10.75
2023-04-30T22:59:43.650Z,9.85
2023-04-30T23:02:11.179Z,9.65
2023-04-30T23:04:39.078Z,10.02
2023-04-30T23:07:06.884Z,9.77
2023-04-30T23:09:34.669Z,10.43
2023-04-30T23:12:05.570Z,10.95
2023-04-30T23:14:33.149Z,10.00
2023-04-30T23:17:00.868Z,10.57
2023-04-30T23:19:28.493Z,10.43
2023-04-30T23:21:56.859Z,10.80
2023-04-30T23:24:24.376Z,10.23
2023-04-30T23:26:52.577Z,10.48
2023-04-30T23:29:21.602Z,11.77
2023-04-30T23:31:49.250Z,11.02
2023-04-30T23:34:16.816Z,11.18
2023-04-30T23:36:44.521Z,10.68
2023-04-30T23:39:12.270Z,9.80
2023-04-30T23:41:39.752Z,10.18
2023-04-30T23:44:07.253Z,10.55
2023-04-30T23:46:36.230Z,10.05
2023-04-30T23:49:03.811Z,9.55
2023-04-30T23:51:33.268Z,10.55
2023-04-30T23:54:00.857Z,10.27
2023-04-30T23:56:28.563Z,10.15
2023-04-30T23:58:56.335Z,9.60
